Pearland, Texas
Current Conditions -  °F | °C
As of 7:53 AM on Wednesday 26 Nov 2014 (Local Time) from KLVJ Reporting Station
Clear Clear  
Wind Chill: 51°   Ceiling: Unl
Heat Index: 51°   Visibility: 10mi
Dew Point: 43°   Wind: 8mph
Humidity: 74%   Direction: 200°SSW
Pressure: 30.26"   Gusts: NA
Location:  29.55°N, 95.26°W
Report Text: KLVJ 261353Z AUTO 20007KT 10SM CLR 11/06 A3026 RMK AO2 SLP245 T01060061
Loading
Personal Weather Stations






























Interactive Weather Map New forecast layout! Learn more

10-Day Weather Forecast

Advertisements
Track Severe Weather on mobile